createdAt,value
2018-05-29T00:01:38.890Z,71.84
2018-05-29T00:04:07.276Z,72.52
2018-05-29T00:06:35.670Z,71.74
2018-05-29T00:09:04.059Z,71.98
2018-05-29T00:11:32.479Z,72.50
2018-05-29T00:14:00.863Z,72.86
2018-05-29T00:16:29.266Z,72.66
2018-05-29T00:18:57.650Z,72.83
2018-05-29T00:21:26.050Z,72.85
2018-05-29T00:23:54.445Z,73.35
2018-05-29T00:26:22.859Z,73.19
2018-05-29T00:28:51.242Z,73.26
2018-05-29T00:31:19.656Z,73.25
2018-05-29T00:33:48.047Z,73.32
2018-05-29T00:36:16.439Z,73.50
2018-05-29T00:38:44.840Z,72.92
2018-05-29T00:41:13.244Z,73.32
2018-05-29T00:43:41.629Z,73.08
2018-05-29T00:46:10.027Z,72.98
2018-05-29T00:48:38.410Z,72.76
2018-05-29T00:51:06.815Z,72.73
2018-05-29T00:53:35.207Z,72.41
2018-05-29T00:56:04.459Z,72.57
2018-05-29T00:58:32.979Z,72.58
2018-05-29T01:01:01.802Z,72.51
2018-05-29T01:03:30.595Z,72.23
2018-05-29T01:05:59.432Z,71.91
2018-05-29T01:08:28.581Z,71.51
2018-05-29T01:10:56.966Z,71.39
2018-05-29T01:13:26.154Z,71.32
2018-05-29T01:15:54.827Z,71.44
2018-05-29T01:18:23.228Z,71.56
2018-05-29T01:20:52.728Z,71.64
2018-05-29T01:23:21.129Z,71.59
2018-05-29T01:25:49.819Z,71.96
2018-05-29T01:28:18.315Z,72.10
2018-05-29T01:30:46.708Z,72.79
2018-05-29T01:33:15.132Z,72.20
2018-05-29T01:35:43.520Z,73.35
2018-05-29T01:38:12.754Z,73.86
2018-05-29T01:40:41.545Z,74.20
2018-05-29T01:43:10.223Z,75.06
2018-05-29T01:45:39.279Z,75.44
2018-05-29T01:48:07.720Z,77.04
2018-05-29T01:50:36.911Z,78.06
2018-05-29T01:53:05.691Z,78.86
2018-05-29T01:55:34.593Z,79.07
2018-05-29T01:58:03.455Z,79.14
2018-05-29T02:00:31.857Z,79.52
2018-05-29T02:03:00.639Z,78.61
2018-05-29T02:05:29.023Z,78.65
2018-05-29T02:07:57.427Z,78.67
2018-05-29T02:10:25.814Z,78.71
2018-05-29T02:12:54.239Z,79.03
2018-05-29T02:15:22.631Z,78.35
2018-05-29T02:17:51.047Z,79.08
2018-05-29T02:20:19.431Z,79.05
2018-05-29T02:22:47.847Z,79.90
2018-05-29T02:25:16.240Z,79.74
2018-05-29T02:27:44.648Z,80.19
2018-05-29T02:30:13.040Z,79.94
2018-05-29T02:32:41.486Z,80.98
2018-05-29T02:35:09.863Z,80.65
2018-05-29T02:37:38.279Z,80.18
2018-05-29T02:40:06.667Z,79.43
2018-05-29T02:42:35.084Z,79.54
2018-05-29T02:45:03.883Z,79.55
2018-05-29T02:47:32.292Z,79.79
2018-05-29T02:50:01.198Z,79.86
2018-05-29T02:52:29.775Z,79.96
2018-05-29T02:54:58.879Z,80.06
2018-05-29T02:57:27.306Z,79.71
2018-05-29T02:59:55.690Z,79.95
2018-05-29T03:02:24.648Z,79.53
2018-05-29T03:04:53.419Z,79.59
2018-05-29T03:07:22.204Z,80.15
2018-05-29T03:09:50.952Z,81.02
2018-05-29T03:12:19.670Z,80.93
2018-05-29T03:14:48.144Z,81.60
2018-05-29T03:17:16.567Z,81.99
2018-05-29T03:19:45.120Z,82.46
2018-05-29T03:22:13.532Z,82.16
2018-05-29T03:24:41.918Z,81.72
2018-05-29T03:27:10.327Z,81.81
2018-05-29T03:29:38.715Z,81.10
2018-05-29T03:32:07.142Z,80.52
2018-05-29T03:34:35.542Z,80.51
2018-05-29T03:37:03.952Z,80.21
2018-05-29T03:39:32.339Z,79.96
2018-05-29T03:42:00.746Z,80.12
2018-05-29T03:44:29.131Z,79.92
2018-05-29T03:46:57.538Z,80.29
2018-05-29T03:49:25.932Z,80.75
2018-05-29T03:51:54.352Z,80.80
2018-05-29T03:54:22.735Z,80.72
2018-05-29T03:56:51.137Z,80.41
2018-05-29T03:59:20.456Z,80.10
2018-05-29T04:01:50.952Z,79.60
2018-05-29T04:04:19.799Z,79.18
2018-05-29T04:06:48.830Z,79.15
2018-05-29T04:09:17.280Z,79.11
2018-05-29T04:11:46.827Z,79.37
2018-05-29T04:14:15.567Z,79.48
2018-05-29T04:16:44.817Z,79.89
2018-05-29T04:19:13.719Z,80.04
2018-05-29T04:21:42.095Z,79.29
2018-05-29T04:24:10.774Z,78.93
2018-05-29T04:26:39.178Z,77.64
2018-05-29T04:29:07.940Z,77.89
2018-05-29T04:31:36.348Z,77.88
2018-05-29T04:34:04.735Z,78.14
2018-05-29T04:36:33.123Z,77.41
2018-05-29T04:39:01.531Z,77.65
2018-05-29T04:41:29.915Z,77.15
2018-05-29T04:43:58.320Z,77.16
2018-05-29T04:46:26.722Z,77.05
2018-05-29T04:48:55.139Z,77.21
2018-05-29T04:51:23.532Z,77.50
2018-05-29T04:53:51.927Z,77.65
2018-05-29T04:56:20.324Z,77.07
2018-05-29T04:58:48.735Z,76.40
2018-05-29T05:01:17.138Z,76.17
2018-05-29T05:03:45.699Z,74.89
2018-05-29T05:06:14.539Z,74.81
2018-05-29T05:08:43.798Z,73.78
2018-05-29T05:11:13.671Z,74.73
2018-05-29T05:13:42.184Z,73.97
2018-05-29T05:16:11.458Z,73.44
2018-05-29T05:18:39.931Z,73.32
2018-05-29T05:21:08.791Z,72.57
2018-05-29T05:23:37.418Z,72.45
2018-05-29T05:26:05.794Z,71.88
2018-05-29T05:28:34.306Z,71.95
2018-05-29T05:31:02.808Z,70.24
2018-05-29T05:33:31.327Z,68.17
2018-05-29T05:35:59.852Z,68.16
2018-05-29T05:38:28.267Z,66.87
2018-05-29T05:40:56.779Z,64.85
2018-05-29T05:43:25.191Z,63.40
2018-05-29T05:45:54.268Z,62.64
2018-05-29T05:48:22.688Z,62.13
2018-05-29T05:50:51.155Z,59.68
2018-05-29T05:53:19.564Z,60.64
2018-05-29T05:55:48.283Z,59.61
2018-05-29T05:58:16.694Z,56.76
2018-05-29T06:00:45.091Z,54.43
2018-05-29T06:03:13.503Z,52.69
2018-05-29T06:05:41.910Z,52.93
2018-05-29T06:08:10.584Z,51.24
2018-05-29T06:10:39.053Z,48.66
2018-05-29T06:13:07.535Z,47.74
2018-05-29T06:15:36.439Z,45.70
2018-05-29T06:18:04.843Z,45.81
2018-05-29T06:20:33.696Z,45.21
2018-05-29T06:23:02.108Z,43.62
2018-05-29T06:25:30.707Z,41.38
2018-05-29T06:27:59.367Z,41.58
2018-05-29T06:30:27.764Z,40.54
2018-05-29T06:32:56.431Z,40.64
2018-05-29T06:35:25.147Z,40.68
2018-05-29T06:37:53.555Z,37.58
2018-05-29T06:40:22.387Z,38.75
2018-05-29T06:42:50.878Z,37.13
2018-05-29T06:45:19.496Z,38.32
2018-05-29T06:47:48.522Z,37.11
2018-05-29T06:50:17.019Z,38.16
2018-05-29T06:52:45.563Z,38.52
2018-05-29T06:55:13.953Z,40.40
2018-05-29T06:57:42.369Z,43.57
2018-05-29T07:00:11.215Z,42.95
2018-05-29T07:02:39.627Z,41.12
2018-05-29T07:05:08.519Z,39.91
2018-05-29T07:07:37.238Z,38.06
2018-05-29T07:10:06.724Z,36.22
2018-05-29T07:12:35.972Z,37.86
2018-05-29T07:15:04.727Z,35.58
2018-05-29T07:17:33.141Z,34.14
2018-05-29T07:20:01.519Z,34.50
2018-05-29T07:22:29.926Z,33.58
2018-05-29T07:24:58.311Z,32.90
2018-05-29T07:27:26.723Z,33.49
2018-05-29T07:29:55.117Z,33.81
2018-05-29T07:32:23.507Z,31.51
2018-05-29T07:34:51.926Z,30.89
2018-05-29T07:37:20.311Z,30.05
2018-05-29T07:39:48.783Z,30.59
2018-05-29T07:42:17.115Z,30.44
2018-05-29T07:44:45.543Z,31.27
2018-05-29T07:47:13.934Z,31.37
2018-05-29T07:49:42.330Z,31.27
2018-05-29T07:52:10.733Z,31.00
2018-05-29T07:54:39.140Z,31.22
2018-05-29T07:57:07.543Z,30.74
2018-05-29T07:59:35.946Z,34.31
2018-05-29T08:02:04.792Z,32.89
2018-05-29T08:04:33.351Z,34.47
2018-05-29T08:07:02.543Z,33.80
2018-05-29T08:09:30.954Z,35.02
2018-05-29T08:11:59.658Z,37.50
2018-05-29T08:14:28.071Z,37.17
2018-05-29T08:16:56.462Z,36.36
2018-05-29T08:19:25.176Z,36.53
2018-05-29T08:21:53.569Z,36.90
2018-05-29T08:24:22.136Z,34.03
2018-05-29T08:26:50.519Z,31.46
2018-05-29T08:29:18.935Z,29.50
2018-05-29T08:31:47.327Z,30.73
2018-05-29T08:34:15.767Z,30.22
2018-05-29T08:36:44.171Z,33.44
2018-05-29T08:39:12.587Z,31.81
2018-05-29T08:41:41.178Z,31.94
2018-05-29T08:44:09.591Z,30.40
2018-05-29T08:46:37.992Z,29.39
2018-05-29T08:49:06.421Z,31.39
2018-05-29T08:51:34.823Z,29.38
2018-05-29T08:54:03.244Z,28.51
2018-05-29T08:56:31.640Z,27.28
2018-05-29T08:59:00.476Z,26.58
2018-05-29T09:01:28.870Z,26.17
2018-05-29T09:03:57.324Z,24.31
2018-05-29T09:06:25.671Z,24.35
2018-05-29T09:08:54.083Z,27.31
2018-05-29T09:11:22.470Z,29.19
2018-05-29T09:13:51.207Z,28.91
2018-05-29T09:16:19.591Z,29.75
2018-05-29T09:18:48.111Z,27.26
2018-05-29T09:21:16.503Z,27.86
2018-05-29T09:23:44.918Z,26.00
2018-05-29T09:26:13.307Z,27.59
2018-05-29T09:28:41.727Z,26.16
2018-05-29T09:31:10.111Z,24.82
2018-05-29T09:33:38.536Z,26.25
2018-05-29T09:36:06.924Z,25.29
2018-05-29T09:38:35.336Z,25.56
2018-05-29T09:41:03.727Z,23.71
2018-05-29T09:43:32.168Z,25.53
2018-05-29T09:46:00.608Z,24.25
2018-05-29T09:48:28.999Z,25.40
2018-05-29T09:50:57.389Z,26.30
2018-05-29T09:53:25.816Z,27.51
2018-05-29T09:55:54.287Z,28.78
2018-05-29T09:58:22.712Z,28.18
2018-05-29T10:00:51.107Z,27.71
2018-05-29T10:03:19.531Z,29.26
2018-05-29T10:05:47.987Z,30.92
2018-05-29T10:08:16.347Z,32.75
2018-05-29T10:10:44.753Z,36.16
2018-05-29T10:13:13.164Z,37.41
2018-05-29T10:15:41.731Z,37.93
2018-05-29T10:18:10.142Z,38.51
2018-05-29T10:20:38.539Z,35.38
2018-05-29T10:23:07.159Z,30.00
2018-05-29T10:25:35.576Z,27.85
2018-05-29T10:28:04.163Z,26.17
2018-05-29T10:30:32.623Z,27.38
2018-05-29T10:33:01.023Z,32.82
2018-05-29T10:35:30.282Z,35.13
2018-05-29T10:37:58.676Z,36.44
2018-05-29T10:40:27.095Z,36.86
2018-05-29T10:42:55.483Z,36.19
2018-05-29T10:45:24.047Z,37.29
2018-05-29T10:47:52.507Z,36.84
2018-05-29T10:50:21.024Z,38.98
2018-05-29T10:52:49.424Z,37.79
2018-05-29T10:55:17.844Z,38.59
2018-05-29T10:57:46.238Z,39.71
2018-05-29T11:00:14.648Z,36.69
2018-05-29T11:02:43.040Z,35.20
2018-05-29T11:05:11.452Z,35.68
2018-05-29T11:07:39.839Z,35.79
2018-05-29T11:10:08.255Z,35.03
2018-05-29T11:12:36.640Z,36.44
2018-05-29T11:15:05.274Z,39.23
2018-05-29T11:17:33.663Z,40.57
2018-05-29T11:20:02.088Z,42.54
2018-05-29T11:22:30.743Z,44.31
2018-05-29T11:24:59.250Z,45.71
2018-05-29T11:27:27.636Z,49.12
2018-05-29T11:29:56.052Z,50.89
2018-05-29T11:32:24.452Z,51.96
2018-05-29T11:34:52.868Z,54.22
2018-05-29T11:37:21.251Z,56.35
2018-05-29T11:39:49.667Z,57.21
2018-05-29T11:42:18.091Z,64.81
2018-05-29T11:44:46.512Z,69.54
2018-05-29T11:47:15.737Z,75.20
2018-05-29T11:49:44.547Z,79.33
2018-05-29T11:52:12.935Z,73.46
2018-05-29T11:54:41.634Z,74.00
2018-05-29T11:57:10.012Z,70.05
2018-05-29T11:59:38.412Z,74.40
2018-05-29T12:02:06.791Z,77.73
2018-05-29T12:04:35.195Z,77.87
2018-05-29T12:07:03.589Z,78.08
2018-05-29T12:09:32.026Z,80.17
2018-05-29T12:12:13.331Z,84.57
2018-05-29T12:14:42.267Z,83.02
2018-05-29T12:17:11.119Z,80.57
2018-05-29T12:19:40.442Z,82.95
2018-05-29T12:22:08.998Z,74.48
2018-05-29T12:24:37.651Z,75.32
2018-05-29T12:27:06.903Z,70.73
2018-05-29T12:29:35.928Z,70.98
2018-05-29T12:32:05.834Z,71.54
2018-05-29T12:34:34.240Z,73.74
2018-05-29T12:37:02.828Z,71.99
2018-05-29T12:39:31.231Z,67.07
2018-05-29T12:42:00.471Z,68.20
2018-05-29T12:44:29.711Z,75.34
2018-05-29T12:46:58.088Z,74.90
2018-05-29T12:49:26.491Z,77.96
2018-05-29T12:51:54.874Z,77.26
2018-05-29T12:54:23.270Z,76.54
2018-05-29T12:56:51.655Z,73.49
2018-05-29T12:59:20.064Z,75.12
2018-05-29T13:01:48.444Z,76.22
2018-05-29T13:04:16.839Z,75.70
2018-05-29T13:06:45.227Z,73.27
2018-05-29T13:09:13.714Z,73.92
2018-05-29T13:11:42.629Z,71.69
2018-05-29T13:14:11.048Z,73.21
2018-05-29T13:16:39.725Z,68.95
2018-05-29T13:19:08.075Z,68.99
2018-05-29T13:21:36.923Z,70.10
2018-05-29T13:24:05.327Z,67.05
2018-05-29T13:26:33.719Z,63.79
2018-05-29T13:29:02.141Z,56.54
2018-05-29T13:31:30.514Z,50.40
2018-05-29T13:33:58.917Z,46.64
2018-05-29T13:36:27.297Z,43.83
2018-05-29T13:38:55.689Z,40.10
2018-05-29T13:41:24.090Z,39.42
2018-05-29T13:43:52.494Z,40.19
2018-05-29T13:46:20.874Z,45.63
2018-05-29T13:48:49.271Z,50.66
2018-05-29T13:51:17.672Z,53.48
2018-05-29T13:53:46.061Z,59.02
2018-05-29T13:56:14.478Z,60.43
2018-05-29T13:58:42.854Z,64.20
2018-05-29T14:01:11.275Z,67.11
2018-05-29T14:03:39.666Z,74.36
2018-05-29T14:06:08.067Z,73.10
2018-05-29T14:08:36.459Z,72.07
2018-05-29T14:11:04.879Z,73.46
2018-05-29T14:13:34.386Z,75.05
2018-05-29T14:16:03.029Z,76.29
2018-05-29T14:18:31.419Z,74.46
2018-05-29T14:20:59.891Z,72.85
2018-05-29T14:23:28.271Z,72.71
2018-05-29T14:25:56.683Z,72.16
2018-05-29T14:28:25.297Z,72.27
2018-05-29T14:30:53.707Z,72.24
2018-05-29T14:33:22.101Z,72.73
2018-05-29T14:35:50.794Z,69.26
2018-05-29T14:38:19.170Z,68.76
2018-05-29T14:40:47.745Z,67.81
2018-05-29T14:43:16.141Z,69.07
2018-05-29T14:45:45.359Z,67.07
2018-05-29T14:48:13.751Z,65.75
2018-05-29T14:50:42.362Z,67.97
2018-05-29T14:53:11.623Z,70.73
2018-05-29T14:55:40.627Z,71.34
2018-05-29T14:58:09.019Z,69.50
2018-05-29T15:00:37.759Z,70.58
2018-05-29T15:03:07.008Z,67.04
2018-05-29T15:05:35.416Z,64.65
2018-05-29T15:08:03.807Z,66.39
2018-05-29T15:10:32.215Z,64.18
2018-05-29T15:13:00.627Z,64.00
2018-05-29T15:15:29.023Z,65.03
2018-05-29T15:17:57.495Z,65.14
2018-05-29T15:20:27.628Z,63.76
2018-05-29T15:22:56.015Z,65.86
2018-05-29T15:25:24.522Z,63.91
2018-05-29T15:27:52.912Z,63.66
2018-05-29T15:30:21.332Z,64.19
2018-05-29T15:32:49.949Z,64.36
2018-05-29T15:35:18.360Z,63.11
2018-05-29T15:37:46.859Z,62.34
2018-05-29T15:40:15.344Z,62.01
2018-05-29T15:42:43.730Z,62.44
2018-05-29T15:45:12.139Z,61.71
2018-05-29T15:47:40.782Z,63.56
2018-05-29T15:50:09.186Z,64.25
2018-05-29T15:52:37.576Z,62.63
2018-05-29T15:55:05.986Z,62.58
2018-05-29T15:57:34.363Z,62.56
2018-05-29T16:00:02.812Z,62.44
2018-05-29T16:02:31.195Z,60.70
2018-05-29T16:04:59.607Z,61.72
2018-05-29T16:07:28.175Z,62.07
2018-05-29T16:09:56.571Z,62.39
2018-05-29T16:12:24.955Z,63.66
2018-05-29T16:14:53.361Z,63.12
2018-05-29T16:17:21.747Z,62.18
2018-05-29T16:19:50.154Z,62.43
2018-05-29T16:22:18.518Z,61.75
2018-05-29T16:24:46.923Z,63.70
2018-05-29T16:27:15.315Z,65.09
2018-05-29T16:29:44.035Z,64.13
2018-05-29T16:32:12.471Z,63.26
2018-05-29T16:34:41.035Z,65.91
2018-05-29T16:37:09.351Z,65.58
2018-05-29T16:39:38.068Z,65.44
2018-05-29T16:42:06.968Z,66.44
2018-05-29T16:44:35.366Z,66.72
2018-05-29T16:47:03.748Z,65.67
2018-05-29T16:49:32.121Z,65.76
2018-05-29T16:52:00.523Z,66.36
2018-05-29T16:54:29.015Z,66.62
2018-05-29T16:56:57.923Z,66.61
2018-05-29T16:59:26.299Z,66.86
2018-05-29T17:01:54.703Z,68.03
2018-05-29T17:04:24.954Z,69.62
2018-05-29T17:06:53.344Z,66.12
2018-05-29T17:09:21.738Z,65.02
2018-05-29T17:11:50.140Z,64.73
2018-05-29T17:14:18.710Z,63.60
2018-05-29T17:16:47.113Z,65.20
2018-05-29T17:19:15.675Z,63.86
2018-05-29T17:21:44.080Z,65.78
2018-05-29T17:24:13.299Z,65.23
2018-05-29T17:26:41.718Z,65.12
2018-05-29T17:29:10.091Z,65.21
2018-05-29T17:31:38.624Z,66.00
2018-05-29T17:34:07.012Z,65.36
2018-05-29T17:36:35.552Z,65.72
2018-05-29T17:39:03.931Z,66.34
2018-05-29T17:41:32.330Z,66.79
2018-05-29T17:44:00.704Z,67.41
2018-05-29T17:46:29.615Z,66.93
2018-05-29T17:48:58.003Z,66.71
2018-05-29T17:51:26.491Z,66.29
2018-05-29T17:53:56.400Z,67.08
2018-05-29T17:56:24.860Z,67.90
2018-05-29T17:58:53.435Z,65.46
2018-05-29T18:01:21.854Z,66.11
2018-05-29T18:03:50.356Z,66.79
2018-05-29T18:06:18.760Z,67.49
2018-05-29T18:08:47.139Z,68.71
2018-05-29T18:11:15.768Z,68.94
2018-05-29T18:13:44.347Z,68.88
2018-05-29T18:16:12.779Z,69.47
2018-05-29T18:18:41.316Z,69.55
2018-05-29T18:21:09.692Z,70.71
2018-05-29T18:23:38.067Z,69.55
2018-05-29T18:26:06.468Z,69.21
2018-05-29T18:28:34.847Z,70.68
2018-05-29T18:31:03.258Z,71.75
2018-05-29T18:33:31.636Z,72.49
2018-05-29T18:36:00.031Z,73.30
2018-05-29T18:38:28.444Z,73.63
2018-05-29T18:40:57.099Z,73.37
2018-05-29T18:43:25.480Z,73.98
2018-05-29T18:45:53.921Z,73.13
2018-05-29T18:48:23.022Z,73.46
2018-05-29T18:50:51.507Z,72.34
2018-05-29T18:53:20.003Z,72.44
2018-05-29T18:55:48.521Z,74.01
2018-05-29T18:58:17.024Z,74.36
2018-05-29T19:00:45.424Z,77.51
2018-05-29T19:03:13.853Z,78.71
2018-05-29T19:05:42.416Z,79.01
2018-05-29T19:08:10.892Z,80.23
2018-05-29T19:10:39.539Z,80.94
2018-05-29T19:13:08.555Z,81.52
2018-05-29T19:15:37.016Z,81.56
2018-05-29T19:18:05.870Z,82.18
2018-05-29T19:20:34.492Z,82.27
2018-05-29T19:23:02.901Z,82.45
2018-05-29T19:25:31.354Z,82.51
2018-05-29T19:27:59.755Z,82.99
2018-05-29T19:30:28.180Z,82.70
2018-05-29T19:32:56.909Z,83.66
2018-05-29T19:35:25.319Z,84.05
2018-05-29T19:37:53.724Z,83.79
2018-05-29T19:40:22.124Z,83.70
2018-05-29T19:42:50.531Z,83.22
2018-05-29T19:45:19.056Z,82.82
2018-05-29T19:47:47.676Z,82.35
2018-05-29T19:50:16.265Z,82.38
2018-05-29T19:52:45.082Z,81.35
2018-05-29T19:55:13.476Z,81.12
2018-05-29T19:57:42.227Z,81.29
2018-05-29T20:00:11.339Z,81.83
2018-05-29T20:02:42.599Z,82.18
2018-05-29T20:05:12.390Z,82.16
2018-05-29T20:07:41.152Z,81.37
2018-05-29T20:10:09.535Z,81.32
2018-05-29T20:12:37.934Z,79.74
2018-05-29T20:15:06.324Z,78.55
2018-05-29T20:17:35.113Z,77.07
2018-05-29T20:20:03.600Z,76.95
2018-05-29T20:22:31.959Z,77.48
2018-05-29T20:25:00.355Z,78.27
2018-05-29T20:27:29.176Z,77.67
2018-05-29T20:29:57.939Z,77.67
2018-05-29T20:32:26.344Z,77.40
2018-05-29T20:34:54.736Z,77.34
2018-05-29T20:37:23.787Z,76.80
2018-05-29T20:39:52.167Z,77.15
2018-05-29T20:42:20.571Z,77.73
2018-05-29T20:44:48.959Z,77.53
2018-05-29T20:47:17.364Z,77.05
2018-05-29T20:49:45.743Z,76.77
2018-05-29T20:52:14.460Z,77.16
2018-05-29T20:54:42.827Z,77.11
2018-05-29T20:57:11.222Z,76.35
2018-05-29T20:59:39.594Z,76.59
2018-05-29T21:02:08.323Z,76.14
2018-05-29T21:04:36.687Z,76.67
2018-05-29T21:07:05.079Z,76.23
2018-05-29T21:09:33.460Z,76.28
2018-05-29T21:12:01.854Z,76.03
2018-05-29T21:14:30.224Z,75.98
2018-05-29T21:16:58.992Z,76.41
2018-05-29T21:19:27.747Z,75.98
2018-05-29T21:21:57.920Z,76.48
2018-05-29T21:24:26.299Z,77.02
2018-05-29T21:26:54.703Z,76.08
2018-05-29T21:29:23.579Z,75.71
2018-05-29T21:31:52.312Z,76.56
2018-05-29T21:34:21.527Z,76.58
2018-05-29T21:36:50.285Z,76.11
2018-05-29T21:39:19.363Z,76.03
2018-05-29T21:41:47.766Z,76.15
2018-05-29T21:44:16.914Z,76.65
2018-05-29T21:46:45.572Z,77.56
2018-05-29T21:49:14.231Z,77.81
2018-05-29T21:51:43.075Z,77.76
2018-05-29T21:54:11.456Z,77.96
2018-05-29T21:56:39.955Z,78.95
2018-05-29T21:59:08.847Z,79.31
2018-05-29T22:01:37.244Z,78.92
2018-05-29T22:04:05.629Z,80.07
2018-05-29T22:06:34.015Z,79.50
2018-05-29T22:09:02.397Z,78.79
2018-05-29T22:11:31.008Z,78.82
2018-05-29T22:13:59.648Z,80.54
2018-05-29T22:16:28.471Z,80.24
2018-05-29T22:18:56.847Z,81.10
2018-05-29T22:21:25.260Z,80.83
2018-05-29T22:23:53.627Z,81.04
2018-05-29T22:26:22.078Z,82.52
2018-05-29T22:28:50.412Z,82.66
2018-05-29T22:31:18.815Z,83.63
2018-05-29T22:33:47.208Z,84.44
2018-05-29T22:36:15.599Z,84.67
2018-05-29T22:38:43.971Z,84.70
2018-05-29T22:41:12.359Z,85.23
2018-05-29T22:43:40.731Z,85.17
2018-05-29T22:46:09.103Z,85.10
2018-05-29T22:48:37.508Z,85.12
2018-05-29T22:51:05.887Z,84.40
2018-05-29T22:53:34.311Z,85.15
2018-05-29T22:56:02.691Z,85.45
2018-05-29T22:58:31.083Z,85.80
2018-05-29T23:00:59.468Z,86.27
2018-05-29T23:03:27.867Z,86.58
2018-05-29T23:05:56.251Z,86.64
2018-05-29T23:08:24.655Z,86.61
2018-05-29T23:10:53.044Z,86.52
2018-05-29T23:13:21.446Z,86.54
2018-05-29T23:15:49.823Z,86.57
2018-05-29T23:18:18.227Z,86.28
2018-05-29T23:20:46.611Z,86.45
2018-05-29T23:23:15.231Z,86.56
2018-05-29T23:25:43.604Z,86.48
2018-05-29T23:28:12.011Z,86.71
2018-05-29T23:30:41.319Z,86.48
2018-05-29T23:33:09.711Z,86.22
2018-05-29T23:35:38.121Z,85.96
2018-05-29T23:38:06.515Z,85.71
2018-05-29T23:40:34.891Z,86.14
2018-05-29T23:43:03.286Z,86.38
2018-05-29T23:45:31.671Z,86.10
2018-05-29T23:48:00.103Z,86.10
2018-05-29T23:50:28.486Z,85.47
2018-05-29T23:52:57.095Z,85.79
2018-05-29T23:55:26.087Z,86.19
2018-05-29T23:57:54.700Z,86.69
